sensor_id;sensor_type;location;lat;lon;timestamp;P1;durP1;ratioP1;P2;durP2;ratioP2
76894;SDS011;65855;42.030;13.078;2022-12-15T00:01:05;14.77;;;5.75;;
76894;SDS011;65855;42.030;13.078;2022-12-15T00:03:49;31.25;;;9.02;;
76894;SDS011;65855;42.030;13.078;2022-12-15T00:06:33;28.38;;;7.10;;
76894;SDS011;65855;42.030;13.078;2022-12-15T00:09:17;46.08;;;13.05;;
76894;SDS011;65855;42.030;13.078;2022-12-15T00:12:01;17.52;;;5.32;;
76894;SDS011;65855;42.030;13.078;2022-12-15T00:14:45;56.92;;;21.33;;
76894;SDS011;65855;42.030;13.078;2022-12-15T00:17:29;87.45;;;36.95;;
76894;SDS011;65855;42.030;13.078;2022-12-15T00:20:13;26.45;;;9.27;;
76894;SDS011;65855;42.030;13.078;2022-12-15T00:22:57;37.65;;;8.32;;
76894;SDS011;65855;42.030;13.078;2022-12-15T00:25:42;28.98;;;7.68;;
76894;SDS011;65855;42.030;13.078;2022-12-15T00:28:26;40.60;;;7.57;;
76894;SDS011;65855;42.030;13.078;2022-12-15T00:33:55;48.17;;;8.48;;
76894;SDS011;65855;42.030;13.078;2022-12-15T00:36:39;46.25;;;8.55;;
76894;SDS011;65855;42.030;13.078;2022-12-15T00:39:23;46.75;;;13.40;;
76894;SDS011;65855;42.030;13.078;2022-12-15T00:41:48;19.58;;;6.63;;
76894;SDS011;65855;42.030;13.078;2022-12-15T00:44:14;13.10;;;5.35;;
76894;SDS011;65855;42.030;13.078;2022-12-15T00:46:39;10.02;;;3.90;;
76894;SDS011;65855;42.030;13.078;2022-12-15T00:49:20;9.40;;;3.63;;
76894;SDS011;65855;42.030;13.078;2022-12-15T00:52:06;7.40;;;4.22;;
76894;SDS011;65855;42.030;13.078;2022-12-15T00:54:50;5.97;;;3.20;;
76894;SDS011;65855;42.030;13.078;2022-12-15T00:57:34;7.50;;;2.92;;
76894;SDS011;65855;42.030;13.078;2022-12-15T01:00:18;8.57;;;3.28;;
76894;SDS011;65855;42.030;13.078;2022-12-15T01:03:08;6.93;;;3.05;;
76894;SDS011;65855;42.030;13.078;2022-12-15T01:06:00;5.30;;;2.20;;
76894;SDS011;65855;42.030;13.078;2022-12-15T01:08:47;4.93;;;2.83;;
76894;SDS011;65855;42.030;13.078;2022-12-15T01:11:31;3.92;;;2.65;;
76894;SDS011;65855;42.030;13.078;2022-12-15T01:14:15;3.63;;;1.77;;
76894;SDS011;65855;42.030;13.078;2022-12-15T01:16:59;3.22;;;2.00;;
76894;SDS011;65855;42.030;13.078;2022-12-15T01:19:43;6.53;;;1.45;;
76894;SDS011;65855;42.030;13.078;2022-12-15T01:22:27;5.50;;;3.60;;
76894;SDS011;65855;42.030;13.078;2022-12-15T01:24:53;4.00;;;2.00;;
76894;SDS011;65855;42.030;13.078;2022-12-15T01:27:19;4.25;;;2.60;;
76894;SDS011;65855;42.030;13.078;2022-12-15T01:29:44;5.55;;;2.40;;
76894;SDS011;65855;42.030;13.078;2022-12-15T01:32:09;6.43;;;2.35;;
76894;SDS011;65855;42.030;13.078;2022-12-15T01:34:36;26.77;;;3.17;;
76894;SDS011;65855;42.030;13.078;2022-12-15T01:37:01;13.90;;;2.40;;
76894;SDS011;65855;42.030;13.078;2022-12-15T01:39:26;5.78;;;2.85;;
76894;SDS011;65855;42.030;13.078;2022-12-15T01:42:12;4.40;;;1.42;;
76894;SDS011;65855;42.030;13.078;2022-12-15T01:44:38;6.35;;;2.85;;
76894;SDS011;65855;42.030;13.078;2022-12-15T01:47:03;27.90;;;3.35;;
76894;SDS011;65855;42.030;13.078;2022-12-15T01:49:29;25.58;;;2.97;;
76894;SDS011;65855;42.030;13.078;2022-12-15T01:52:00;51.58;;;4.45;;
76894;SDS011;65855;42.030;13.078;2022-12-15T01:54:32;28.67;;;3.75;;
76894;SDS011;65855;42.030;13.078;2022-12-15T01:57:07;18.60;;;3.53;;
76894;SDS011;65855;42.030;13.078;2022-12-15T01:59:38;30.67;;;3.17;;
76894;SDS011;65855;42.030;13.078;2022-12-15T02:02:07;46.10;;;3.67;;
76894;SDS011;65855;42.030;13.078;2022-12-15T02:04:34;7.80;;;1.98;;
76894;SDS011;65855;42.030;13.078;2022-12-15T02:07:02;10.13;;;3.08;;
76894;SDS011;65855;42.030;13.078;2022-12-15T02:09:28;12.00;;;2.92;;
76894;SDS011;65855;42.030;13.078;2022-12-15T02:17:05;4.78;;;1.92;;
76894;SDS011;65855;42.030;13.078;2022-12-15T02:28:09;3.47;;;2.03;;
76894;SDS011;65855;42.030;13.078;2022-12-15T02:33:45;3.47;;;1.80;;
76894;SDS011;65855;42.030;13.078;2022-12-15T02:36:24;2.88;;;1.73;;
76894;SDS011;65855;42.030;13.078;2022-12-15T02:38:56;1.30;;;0.60;;
76894;SDS011;65855;42.030;13.078;2022-12-15T02:41:33;3.97;;;2.00;;
76894;SDS011;65855;42.030;13.078;2022-12-15T02:44:01;3.58;;;2.17;;
76894;SDS011;65855;42.030;13.078;2022-12-15T02:46:35;3.35;;;1.75;;
76894;SDS011;65855;42.030;13.078;2022-12-15T02:52:09;5.47;;;2.53;;
76894;SDS011;65855;42.030;13.078;2022-12-15T02:57:37;5.47;;;2.55;;
76894;SDS011;65855;42.030;13.078;2022-12-15T03:00:12;3.47;;;1.88;;
76894;SDS011;65855;42.030;13.078;2022-12-15T03:02:41;3.33;;;1.85;;
76894;SDS011;65855;42.030;13.078;2022-12-15T03:05:12;4.68;;;1.90;;
76894;SDS011;65855;42.030;13.078;2022-12-15T03:07:38;2.70;;;1.73;;
76894;SDS011;65855;42.030;13.078;2022-12-15T03:10:07;5.15;;;2.08;;
76894;SDS011;65855;42.030;13.078;2022-12-15T03:12:34;2.45;;;1.75;;
76894;SDS011;65855;42.030;13.078;2022-12-15T03:14:59;5.53;;;2.28;;
76894;SDS011;65855;42.030;13.078;2022-12-15T03:17:25;20.35;;;3.63;;
76894;SDS011;65855;42.030;13.078;2022-12-15T03:19:51;5.80;;;2.10;;
76894;SDS011;65855;42.030;13.078;2022-12-15T03:22:16;9.35;;;2.85;;
76894;SDS011;65855;42.030;13.078;2022-12-15T03:24:42;8.48;;;2.33;;
76894;SDS011;65855;42.030;13.078;2022-12-15T03:27:07;3.55;;;2.08;;
76894;SDS011;65855;42.030;13.078;2022-12-15T03:29:33;6.53;;;2.22;;
76894;SDS011;65855;42.030;13.078;2022-12-15T03:31:58;7.70;;;2.63;;
76894;SDS011;65855;42.030;13.078;2022-12-15T03:34:23;10.88;;;2.95;;
76894;SDS011;65855;42.030;13.078;2022-12-15T03:36:49;4.55;;;2.17;;
76894;SDS011;65855;42.030;13.078;2022-12-15T03:39:15;9.82;;;2.65;;
76894;SDS011;65855;42.030;13.078;2022-12-15T03:41:40;4.25;;;2.08;;
76894;SDS011;65855;42.030;13.078;2022-12-15T03:44:06;12.00;;;3.58;;
76894;SDS011;65855;42.030;13.078;2022-12-15T03:46:31;9.73;;;3.13;;
76894;SDS011;65855;42.030;13.078;2022-12-15T03:48:57;8.10;;;1.20;;
76894;SDS011;65855;42.030;13.078;2022-12-15T03:51:22;5.88;;;2.17;;
76894;SDS011;65855;42.030;13.078;2022-12-15T03:53:48;12.52;;;2.67;;
76894;SDS011;65855;42.030;13.078;2022-12-15T03:56:14;6.20;;;2.42;;
76894;SDS011;65855;42.030;13.078;2022-12-15T03:58:40;17.70;;;2.38;;
76894;SDS011;65855;42.030;13.078;2022-12-15T04:01:39;37.13;;;18.17;;
76894;SDS011;65855;42.030;13.078;2022-12-15T04:03:58;26.17;;;6.93;;
76894;SDS011;65855;42.030;13.078;2022-12-15T04:06:25;26.17;;;10.95;;
76894;SDS011;65855;42.030;13.078;2022-12-15T04:08:50;13.93;;;6.00;;
76894;SDS011;65855;42.030;13.078;2022-12-15T04:11:16;5.18;;;3.17;;
76894;SDS011;65855;42.030;13.078;2022-12-15T04:13:41;7.68;;;2.95;;
76894;SDS011;65855;42.030;13.078;2022-12-15T04:16:07;66.95;;;15.57;;
76894;SDS011;65855;42.030;13.078;2022-12-15T04:18:33;61.40;;;13.38;;
76894;SDS011;65855;42.030;13.078;2022-12-15T04:20:59;36.08;;;6.35;;
76894;SDS011;65855;42.030;13.078;2022-12-15T04:23:24;14.90;;;3.80;;
76894;SDS011;65855;42.030;13.078;2022-12-15T04:25:49;10.52;;;2.20;;
76894;SDS011;65855;42.030;13.078;2022-12-15T04:28:33;21.50;;;3.42;;
76894;SDS011;65855;42.030;13.078;2022-12-15T04:31:22;82.15;;;23.45;;
76894;SDS011;65855;42.030;13.078;2022-12-15T04:34:12;35.20;;;6.13;;
76894;SDS011;65855;42.030;13.078;2022-12-15T04:36:58;9.15;;;2.80;;
76894;SDS011;65855;42.030;13.078;2022-12-15T04:39:43;8.38;;;2.72;;
76894;SDS011;65855;42.030;13.078;2022-12-15T04:42:30;38.10;;;13.40;;
76894;SDS011;65855;42.030;13.078;2022-12-15T04:45:16;31.70;;;10.32;;
76894;SDS011;65855;42.030;13.078;2022-12-15T04:48:03;9.43;;;2.95;;
76894;SDS011;65855;42.030;13.078;2022-12-15T04:50:47;16.05;;;7.03;;
76894;SDS011;65855;42.030;13.078;2022-12-15T04:53:31;8.43;;;2.85;;
76894;SDS011;65855;42.030;13.078;2022-12-15T04:56:15;23.77;;;3.63;;
76894;SDS011;65855;42.030;13.078;2022-12-15T04:59:00;34.05;;;4.00;;
76894;SDS011;65855;42.030;13.078;2022-12-15T05:01:45;35.92;;;2.78;;
76894;SDS011;65855;42.030;13.078;2022-12-15T05:04:29;13.63;;;2.25;;
76894;SDS011;65855;42.030;13.078;2022-12-15T05:07:13;13.13;;;2.50;;
76894;SDS011;65855;42.030;13.078;2022-12-15T05:09:57;6.30;;;3.75;;
76894;SDS011;65855;42.030;13.078;2022-12-15T05:12:42;32.40;;;6.60;;
76894;SDS011;65855;42.030;13.078;2022-12-15T05:15:26;28.60;;;4.28;;
76894;SDS011;65855;42.030;13.078;2022-12-15T05:18:10;11.90;;;5.47;;
76894;SDS011;65855;42.030;13.078;2022-12-15T05:20:54;14.07;;;2.17;;
76894;SDS011;65855;42.030;13.078;2022-12-15T05:23:38;15.07;;;3.58;;
76894;SDS011;65855;42.030;13.078;2022-12-15T05:26:22;16.42;;;4.90;;
76894;SDS011;65855;42.030;13.078;2022-12-15T05:29:06;18.80;;;9.27;;
76894;SDS011;65855;42.030;13.078;2022-12-15T05:31:50;13.40;;;5.03;;
76894;SDS011;65855;42.030;13.078;2022-12-15T05:36:55;9.38;;;4.85;;
76894;SDS011;65855;42.030;13.078;2022-12-15T05:39:22;12.93;;;5.13;;
76894;SDS011;65855;42.030;13.078;2022-12-15T05:41:48;10.00;;;3.90;;
76894;SDS011;65855;42.030;13.078;2022-12-15T05:44:15;9.02;;;4.07;;
76894;SDS011;65855;42.030;13.078;2022-12-15T05:46:41;6.95;;;3.40;;
76894;SDS011;65855;42.030;13.078;2022-12-15T05:49:08;7.72;;;3.00;;
76894;SDS011;65855;42.030;13.078;2022-12-15T05:51:36;4.03;;;2.30;;
76894;SDS011;65855;42.030;13.078;2022-12-15T05:54:02;19.42;;;3.35;;
76894;SDS011;65855;42.030;13.078;2022-12-15T05:56:28;40.88;;;11.15;;
76894;SDS011;65855;42.030;13.078;2022-12-15T05:58:54;20.10;;;3.22;;
76894;SDS011;65855;42.030;13.078;2022-12-15T06:01:21;26.05;;;3.03;;
76894;SDS011;65855;42.030;13.078;2022-12-15T06:03:48;19.88;;;3.30;;
76894;SDS011;65855;42.030;13.078;2022-12-15T06:06:13;4.00;;;2.70;;
76894;SDS011;65855;42.030;13.078;2022-12-15T06:08:40;12.63;;;5.57;;
76894;SDS011;65855;42.030;13.078;2022-12-15T06:11:06;9.02;;;2.83;;
76894;SDS011;65855;42.030;13.078;2022-12-15T06:13:35;24.92;;;3.53;;
76894;SDS011;65855;42.030;13.078;2022-12-15T06:16:09;25.45;;;3.22;;
76894;SDS011;65855;42.030;13.078;2022-12-15T06:18:37;67.10;;;5.65;;
76894;SDS011;65855;42.030;13.078;2022-12-15T06:21:08;52.22;;;6.32;;
76894;SDS011;65855;42.030;13.078;2022-12-15T06:23:36;80.18;;;7.25;;
76894;SDS011;65855;42.030;13.078;2022-12-15T06:26:10;95.05;;;7.35;;
76894;SDS011;65855;42.030;13.078;2022-12-15T06:28:41;42.63;;;5.47;;
76894;SDS011;65855;42.030;13.078;2022-12-15T06:31:07;81.20;;;8.10;;
76894;SDS011;65855;42.030;13.078;2022-12-15T06:33:35;81.60;;;8.73;;
76894;SDS011;65855;42.030;13.078;2022-12-15T06:36:02;65.45;;;8.43;;
76894;SDS011;65855;42.030;13.078;2022-12-15T06:38:35;90.93;;;5.60;;
76894;SDS011;65855;42.030;13.078;2022-12-15T06:41:02;58.83;;;8.23;;
76894;SDS011;65855;42.030;13.078;2022-12-15T06:43:29;37.63;;;6.15;;
76894;SDS011;65855;42.030;13.078;2022-12-15T06:45:55;54.10;;;7.35;;
76894;SDS011;65855;42.030;13.078;2022-12-15T06:48:22;23.60;;;3.97;;
76894;SDS011;65855;42.030;13.078;2022-12-15T06:50:48;25.17;;;4.05;;
76894;SDS011;65855;42.030;13.078;2022-12-15T06:53:14;8.00;;;4.38;;
76894;SDS011;65855;42.030;13.078;2022-12-15T06:55:42;9.02;;;3.60;;
76894;SDS011;65855;42.030;13.078;2022-12-15T06:58:08;7.65;;;3.55;;
76894;SDS011;65855;42.030;13.078;2022-12-15T07:00:36;9.00;;;2.00;;
76894;SDS011;65855;42.030;13.078;2022-12-15T07:03:02;22.05;;;7.40;;
76894;SDS011;65855;42.030;13.078;2022-12-15T07:05:28;14.80;;;5.55;;
76894;SDS011;65855;42.030;13.078;2022-12-15T07:07:54;9.85;;;4.28;;
76894;SDS011;65855;42.030;13.078;2022-12-15T07:10:19;5.57;;;2.38;;
76894;SDS011;65855;42.030;13.078;2022-12-15T07:12:45;9.13;;;3.25;;
76894;SDS011;65855;42.030;13.078;2022-12-15T07:15:10;15.23;;;3.45;;
76894;SDS011;65855;42.030;13.078;2022-12-15T07:17:36;49.63;;;9.48;;
76894;SDS011;65855;42.030;13.078;2022-12-15T07:20:04;26.23;;;6.57;;
76894;SDS011;65855;42.030;13.078;2022-12-15T07:22:30;25.50;;;7.60;;
76894;SDS011;65855;42.030;13.078;2022-12-15T07:24:56;9.13;;;4.25;;
76894;SDS011;65855;42.030;13.078;2022-12-15T07:27:21;28.35;;;10.15;;
76894;SDS011;65855;42.030;13.078;2022-12-15T07:29:47;16.05;;;5.63;;
76894;SDS011;65855;42.030;13.078;2022-12-15T07:32:12;14.27;;;4.65;;
76894;SDS011;65855;42.030;13.078;2022-12-15T07:34:37;8.68;;;5.00;;
76894;SDS011;65855;42.030;13.078;2022-12-15T07:37:03;8.77;;;3.65;;
76894;SDS011;65855;42.030;13.078;2022-12-15T07:39:28;6.70;;;3.60;;
76894;SDS011;65855;42.030;13.078;2022-12-15T07:41:54;7.45;;;4.00;;
76894;SDS011;65855;42.030;13.078;2022-12-15T07:44:20;10.05;;;4.50;;
76894;SDS011;65855;42.030;13.078;2022-12-15T07:46:45;12.52;;;6.38;;
76894;SDS011;65855;42.030;13.078;2022-12-15T07:49:13;13.52;;;7.25;;
76894;SDS011;65855;42.030;13.078;2022-12-15T07:51:39;18.45;;;8.70;;
76894;SDS011;65855;42.030;13.078;2022-12-15T07:54:05;13.93;;;7.15;;
76894;SDS011;65855;42.030;13.078;2022-12-15T07:56:31;13.15;;;6.25;;
76894;SDS011;65855;42.030;13.078;2022-12-15T07:58:56;12.55;;;4.97;;
76894;SDS011;65855;42.030;13.078;2022-12-15T08:01:21;8.57;;;5.20;;
76894;SDS011;65855;42.030;13.078;2022-12-15T08:03:48;8.63;;;3.70;;
76894;SDS011;65855;42.030;13.078;2022-12-15T08:06:14;5.95;;;3.58;;
76894;SDS011;65855;42.030;13.078;2022-12-15T08:08:40;5.45;;;2.92;;
76894;SDS011;65855;42.030;13.078;2022-12-15T08:11:09;6.80;;;3.35;;
76894;SDS011;65855;42.030;13.078;2022-12-15T08:13:36;7.65;;;4.00;;
76894;SDS011;65855;42.030;13.078;2022-12-15T08:16:02;8.13;;;4.70;;
76894;SDS011;65855;42.030;13.078;2022-12-15T08:18:28;9.07;;;3.92;;
76894;SDS011;65855;42.030;13.078;2022-12-15T08:20:53;11.00;;;4.10;;
76894;SDS011;65855;42.030;13.078;2022-12-15T08:23:19;9.68;;;4.50;;
76894;SDS011;65855;42.030;13.078;2022-12-15T08:25:45;8.73;;;4.25;;
76894;SDS011;65855;42.030;13.078;2022-12-15T08:28:10;9.60;;;4.78;;
76894;SDS011;65855;42.030;13.078;2022-12-15T08:30:35;11.90;;;5.85;;
76894;SDS011;65855;42.030;13.078;2022-12-15T08:33:01;8.95;;;4.90;;
76894;SDS011;65855;42.030;13.078;2022-12-15T08:35:27;7.70;;;3.47;;
76894;SDS011;65855;42.030;13.078;2022-12-15T08:37:52;8.25;;;4.60;;
76894;SDS011;65855;42.030;13.078;2022-12-15T08:40:18;9.55;;;5.07;;
76894;SDS011;65855;42.030;13.078;2022-12-15T08:42:44;8.63;;;3.75;;
76894;SDS011;65855;42.030;13.078;2022-12-15T08:45:09;7.70;;;4.10;;
76894;SDS011;65855;42.030;13.078;2022-12-15T08:47:36;10.15;;;4.18;;
76894;SDS011;65855;42.030;13.078;2022-12-15T08:50:02;10.93;;;5.50;;
76894;SDS011;65855;42.030;13.078;2022-12-15T08:52:29;7.35;;;3.88;;
76894;SDS011;65855;42.030;13.078;2022-12-15T08:54:54;8.68;;;5.25;;
76894;SDS011;65855;42.030;13.078;2022-12-15T08:57:20;11.23;;;4.95;;
76894;SDS011;65855;42.030;13.078;2022-12-15T08:59:45;7.65;;;5.20;;
76894;SDS011;65855;42.030;13.078;2022-12-15T09:02:11;8.18;;;5.03;;
76894;SDS011;65855;42.030;13.078;2022-12-15T09:04:37;10.20;;;5.85;;
76894;SDS011;65855;42.030;13.078;2022-12-15T09:07:02;6.72;;;2.25;;
76894;SDS011;65855;42.030;13.078;2022-12-15T09:09:28;6.85;;;3.22;;
76894;SDS011;65855;42.030;13.078;2022-12-15T09:11:53;6.30;;;3.40;;
76894;SDS011;65855;42.030;13.078;2022-12-15T09:14:19;7.40;;;3.22;;
76894;SDS011;65855;42.030;13.078;2022-12-15T09:16:44;6.40;;;3.15;;
76894;SDS011;65855;42.030;13.078;2022-12-15T09:19:10;6.10;;;2.50;;
76894;SDS011;65855;42.030;13.078;2022-12-15T09:21:36;6.88;;;3.20;;
76894;SDS011;65855;42.030;13.078;2022-12-15T09:24:02;6.90;;;3.40;;
76894;SDS011;65855;42.030;13.078;2022-12-15T09:26:32;7.43;;;3.88;;
76894;SDS011;65855;42.030;13.078;2022-12-15T09:28:58;6.60;;;3.15;;
76894;SDS011;65855;42.030;13.078;2022-12-15T09:31:26;7.70;;;4.45;;
76894;SDS011;65855;42.030;13.078;2022-12-15T09:33:54;8.43;;;4.65;;
76894;SDS011;65855;42.030;13.078;2022-12-15T09:36:21;7.90;;;3.53;;
76894;SDS011;65855;42.030;13.078;2022-12-15T09:38:47;5.15;;;1.92;;
76894;SDS011;65855;42.030;13.078;2022-12-15T09:49:19;7.18;;;3.75;;
76894;SDS011;65855;42.030;13.078;2022-12-15T09:52:07;6.65;;;2.88;;
76894;SDS011;65855;42.030;13.078;2022-12-15T09:54:36;6.20;;;3.53;;
76894;SDS011;65855;42.030;13.078;2022-12-15T10:00:05;5.57;;;2.13;;
76894;SDS011;65855;42.030;13.078;2022-12-15T10:05:31;6.20;;;2.53;;
76894;SDS011;65855;42.030;13.078;2022-12-15T10:08:01;6.43;;;3.00;;
76894;SDS011;65855;42.030;13.078;2022-12-15T10:13:21;6.63;;;3.70;;
76894;SDS011;65855;42.030;13.078;2022-12-15T10:16:29;6.63;;;3.22;;
76894;SDS011;65855;42.030;13.078;2022-12-15T10:19:06;8.38;;;4.53;;
76894;SDS011;65855;42.030;13.078;2022-12-15T10:21:37;10.85;;;4.75;;
76894;SDS011;65855;42.030;13.078;2022-12-15T10:24:17;8.73;;;4.43;;
76894;SDS011;65855;42.030;13.078;2022-12-15T10:26:48;7.13;;;3.30;;
76894;SDS011;65855;42.030;13.078;2022-12-15T10:29:35;5.82;;;3.47;;
76894;SDS011;65855;42.030;13.078;2022-12-15T10:34:41;6.78;;;3.83;;
76894;SDS011;65855;42.030;13.078;2022-12-15T10:37:09;5.38;;;3.15;;
76894;SDS011;65855;42.030;13.078;2022-12-15T10:39:43;6.05;;;3.95;;
76894;SDS011;65855;42.030;13.078;2022-12-15T10:42:29;6.13;;;3.28;;
76894;SDS011;65855;42.030;13.078;2022-12-15T10:44:55;6.63;;;3.40;;
76894;SDS011;65855;42.030;13.078;2022-12-15T10:47:26;7.65;;;4.25;;
76894;SDS011;65855;42.030;13.078;2022-12-15T10:49:53;6.22;;;3.20;;
76894;SDS011;65855;42.030;13.078;2022-12-15T10:54:49;5.93;;;3.00;;
76894;SDS011;65855;42.030;13.078;2022-12-15T10:57:20;5.70;;;3.17;;
76894;SDS011;65855;42.030;13.078;2022-12-15T10:59:51;6.97;;;2.33;;
76894;SDS011;65855;42.030;13.078;2022-12-15T11:07:47;6.57;;;3.25;;
76894;SDS011;65855;42.030;13.078;2022-12-15T11:12:39;9.45;;;5.10;;
76894;SDS011;65855;42.030;13.078;2022-12-15T11:17:52;9.65;;;5.10;;
76894;SDS011;65855;42.030;13.078;2022-12-15T11:20:29;9.20;;;4.72;;
76894;SDS011;65855;42.030;13.078;2022-12-15T11:23:11;9.55;;;4.35;;
76894;SDS011;65855;42.030;13.078;2022-12-15T11:28:39;8.45;;;3.63;;
76894;SDS011;65855;42.030;13.078;2022-12-15T11:31:23;8.07;;;3.83;;
76894;SDS011;65855;42.030;13.078;2022-12-15T11:33:59;9.00;;;3.20;;
76894;SDS011;65855;42.030;13.078;2022-12-15T11:36:37;7.22;;;3.33;;
76894;SDS011;65855;42.030;13.078;2022-12-15T11:39:44;6.95;;;2.95;;
76894;SDS011;65855;42.030;13.078;2022-12-15T11:53:14;4.45;;;1.75;;
76894;SDS011;65855;42.030;13.078;2022-12-15T11:58:45;7.57;;;2.65;;
76894;SDS011;65855;42.030;13.078;2022-12-15T12:04:42;6.13;;;3.20;;
76894;SDS011;65855;42.030;13.078;2022-12-15T12:09:36;4.10;;;1.65;;
76894;SDS011;65855;42.030;13.078;2022-12-15T12:12:25;4.53;;;1.58;;
76894;SDS011;65855;42.030;13.078;2022-12-15T12:18:33;5.28;;;1.65;;
76894;SDS011;65855;42.030;13.078;2022-12-15T12:23:48;7.88;;;3.83;;
76894;SDS011;65855;42.030;13.078;2022-12-15T12:29:11;5.15;;;2.28;;
76894;SDS011;65855;42.030;13.078;2022-12-15T12:31:45;5.28;;;2.42;;
76894;SDS011;65855;42.030;13.078;2022-12-15T12:37:43;6.05;;;2.50;;
76894;SDS011;65855;42.030;13.078;2022-12-15T12:40:45;5.43;;;2.05;;
76894;SDS011;65855;42.030;13.078;2022-12-15T12:43:02;6.15;;;3.05;;
76894;SDS011;65855;42.030;13.078;2022-12-15T12:45:30;6.97;;;2.92;;
76894;SDS011;65855;42.030;13.078;2022-12-15T12:51:11;5.68;;;2.75;;
76894;SDS011;65855;42.030;13.078;2022-12-15T12:53:43;8.13;;;3.05;;
76894;SDS011;65855;42.030;13.078;2022-12-15T12:56:27;7.53;;;3.20;;
76894;SDS011;65855;42.030;13.078;2022-12-15T13:02:20;7.50;;;3.15;;
76894;SDS011;65855;42.030;13.078;2022-12-15T13:07:35;13.18;;;4.18;;
76894;SDS011;65855;42.030;13.078;2022-12-15T13:12:55;8.43;;;4.20;;
76894;SDS011;65855;42.030;13.078;2022-12-15T13:17:59;12.02;;;5.85;;
76894;SDS011;65855;42.030;13.078;2022-12-15T13:20:31;8.35;;;3.95;;
76894;SDS011;65855;42.030;13.078;2022-12-15T13:25:44;9.77;;;4.93;;
76894;SDS011;65855;42.030;13.078;2022-12-15T13:36:08;9.50;;;5.10;;
76894;SDS011;65855;42.030;13.078;2022-12-15T13:38:50;10.68;;;5.85;;
76894;SDS011;65855;42.030;13.078;2022-12-15T13:41:22;11.13;;;5.72;;
76894;SDS011;65855;42.030;13.078;2022-12-15T13:43:48;13.32;;;8.43;;
76894;SDS011;65855;42.030;13.078;2022-12-15T13:46:21;12.27;;;7.18;;
76894;SDS011;65855;42.030;13.078;2022-12-15T13:48:52;11.50;;;6.95;;
76894;SDS011;65855;42.030;13.078;2022-12-15T13:51:44;15.07;;;9.25;;
76894;SDS011;65855;42.030;13.078;2022-12-15T13:54:16;16.30;;;9.13;;
76894;SDS011;65855;42.030;13.078;2022-12-15T13:57:03;12.48;;;7.85;;
76894;SDS011;65855;42.030;13.078;2022-12-15T14:07:47;12.98;;;6.93;;
76894;SDS011;65855;42.030;13.078;2022-12-15T14:10:55;13.85;;;7.18;;
76894;SDS011;65855;42.030;13.078;2022-12-15T14:13:23;9.93;;;5.30;;
76894;SDS011;65855;42.030;13.078;2022-12-15T14:18:27;6.65;;;3.67;;
76894;SDS011;65855;42.030;13.078;2022-12-15T14:20:54;12.10;;;6.40;;
76894;SDS011;65855;42.030;13.078;2022-12-15T14:23:21;10.23;;;5.00;;
76894;SDS011;65855;42.030;13.078;2022-12-15T14:25:55;6.18;;;3.50;;
76894;SDS011;65855;42.030;13.078;2022-12-15T14:28:28;3.67;;;1.88;;
76894;SDS011;65855;42.030;13.078;2022-12-15T14:30:57;9.35;;;4.88;;
76894;SDS011;65855;42.030;13.078;2022-12-15T14:33:24;8.57;;;5.00;;
76894;SDS011;65855;42.030;13.078;2022-12-15T14:35:51;7.75;;;4.82;;
76894;SDS011;65855;42.030;13.078;2022-12-15T14:38:21;13.50;;;6.95;;
76894;SDS011;65855;42.030;13.078;2022-12-15T14:40:50;8.13;;;4.35;;
76894;SDS011;65855;42.030;13.078;2022-12-15T14:43:21;9.50;;;5.35;;
76894;SDS011;65855;42.030;13.078;2022-12-15T14:45:54;8.07;;;4.93;;
76894;SDS011;65855;42.030;13.078;2022-12-15T14:48:30;10.57;;;4.65;;
76894;SDS011;65855;42.030;13.078;2022-12-15T14:50:59;10.55;;;6.35;;
76894;SDS011;65855;42.030;13.078;2022-12-15T14:53:29;10.88;;;5.40;;
76894;SDS011;65855;42.030;13.078;2022-12-15T14:55:58;16.27;;;10.23;;
76894;SDS011;65855;42.030;13.078;2022-12-15T14:58:39;11.43;;;6.47;;
76894;SDS011;65855;42.030;13.078;2022-12-15T15:01:25;9.40;;;6.22;;
76894;SDS011;65855;42.030;13.078;2022-12-15T15:03:58;11.90;;;6.63;;
76894;SDS011;65855;42.030;13.078;2022-12-15T15:06:28;11.48;;;6.63;;
76894;SDS011;65855;42.030;13.078;2022-12-15T15:09:01;12.52;;;7.13;;
76894;SDS011;65855;42.030;13.078;2022-12-15T15:11:34;12.57;;;5.60;;
76894;SDS011;65855;42.030;13.078;2022-12-15T15:14:03;13.93;;;7.75;;
76894;SDS011;65855;42.030;13.078;2022-12-15T15:16:32;10.98;;;5.85;;
76894;SDS011;65855;42.030;13.078;2022-12-15T15:18:59;23.67;;;9.88;;
76894;SDS011;65855;42.030;13.078;2022-12-15T15:21:27;6.28;;;2.28;;
76894;SDS011;65855;42.030;13.078;2022-12-15T15:26:28;3.80;;;1.80;;
76894;SDS011;65855;42.030;13.078;2022-12-15T15:28:54;3.50;;;1.50;;
76894;SDS011;65855;42.030;13.078;2022-12-15T15:33:49;7.45;;;3.85;;
76894;SDS011;65855;42.030;13.078;2022-12-15T15:36:15;8.02;;;3.53;;
76894;SDS011;65855;42.030;13.078;2022-12-15T15:38:41;6.10;;;3.05;;
76894;SDS011;65855;42.030;13.078;2022-12-15T15:43:43;10.43;;;3.70;;
76894;SDS011;65855;42.030;13.078;2022-12-15T15:46:09;14.05;;;7.28;;
76894;SDS011;65855;42.030;13.078;2022-12-15T15:48:40;15.32;;;8.10;;
76894;SDS011;65855;42.030;13.078;2022-12-15T15:51:08;16.80;;;8.55;;
76894;SDS011;65855;42.030;13.078;2022-12-15T15:53:34;6.15;;;3.30;;
76894;SDS011;65855;42.030;13.078;2022-12-15T15:56:02;4.05;;;1.88;;
76894;SDS011;65855;42.030;13.078;2022-12-15T15:58:32;4.38;;;1.65;;
76894;SDS011;65855;42.030;13.078;2022-12-15T16:00:58;19.05;;;10.82;;
76894;SDS011;65855;42.030;13.078;2022-12-15T16:03:24;5.32;;;2.50;;
76894;SDS011;65855;42.030;13.078;2022-12-15T16:05:49;5.93;;;2.45;;
76894;SDS011;65855;42.030;13.078;2022-12-15T16:08:16;4.13;;;1.98;;
76894;SDS011;65855;42.030;13.078;2022-12-15T16:10:44;5.20;;;1.83;;
76894;SDS011;65855;42.030;13.078;2022-12-15T16:13:16;8.27;;;3.65;;
76894;SDS011;65855;42.030;13.078;2022-12-15T16:15:43;5.50;;;3.53;;
76894;SDS011;65855;42.030;13.078;2022-12-15T16:18:10;7.35;;;3.75;;
76894;SDS011;65855;42.030;13.078;2022-12-15T16:20:36;4.68;;;1.10;;
76894;SDS011;65855;42.030;13.078;2022-12-15T16:23:09;3.85;;;1.75;;
76894;SDS011;65855;42.030;13.078;2022-12-15T16:25:39;6.63;;;3.28;;
76894;SDS011;65855;42.030;13.078;2022-12-15T16:28:14;4.60;;;2.08;;
76894;SDS011;65855;42.030;13.078;2022-12-15T16:30:41;7.43;;;2.92;;
76894;SDS011;65855;42.030;13.078;2022-12-15T16:33:07;5.97;;;2.47;;
76894;SDS011;65855;42.030;13.078;2022-12-15T16:35:33;5.45;;;2.13;;
76894;SDS011;65855;42.030;13.078;2022-12-15T16:38:01;5.47;;;3.35;;
76894;SDS011;65855;42.030;13.078;2022-12-15T16:40:30;5.40;;;2.30;;
76894;SDS011;65855;42.030;13.078;2022-12-15T16:43:01;6.43;;;2.75;;
76894;SDS011;65855;42.030;13.078;2022-12-15T16:45:28;4.35;;;2.13;;
76894;SDS011;65855;42.030;13.078;2022-12-15T16:47:54;4.63;;;1.75;;
76894;SDS011;65855;42.030;13.078;2022-12-15T16:50:24;7.53;;;3.90;;
76894;SDS011;65855;42.030;13.078;2022-12-15T16:52:54;4.88;;;1.33;;
76894;SDS011;65855;42.030;13.078;2022-12-15T16:55:21;3.80;;;2.00;;
76894;SDS011;65855;42.030;13.078;2022-12-15T16:57:49;3.90;;;2.00;;
76894;SDS011;65855;42.030;13.078;2022-12-15T17:00:17;3.50;;;1.73;;
76894;SDS011;65855;42.030;13.078;2022-12-15T17:02:47;5.65;;;2.60;;
76894;SDS011;65855;42.030;13.078;2022-12-15T17:05:13;4.60;;;1.45;;
76894;SDS011;65855;42.030;13.078;2022-12-15T17:07:39;6.90;;;3.67;;
76894;SDS011;65855;42.030;13.078;2022-12-15T17:10:10;3.42;;;1.77;;
76894;SDS011;65855;42.030;13.078;2022-12-15T17:12:40;5.93;;;2.63;;